sensor_id;sensor_type;location;lat;lon;timestamp;P1;durP1;ratioP1;P2;durP2;ratioP2
10216;SDS011;5152;59.674;16.838;2023-07-28T00:01:56;4.07;;;2.20;;
10216;SDS011;5152;59.674;16.838;2023-07-28T00:04:23;8.00;;;2.90;;
10216;SDS011;5152;59.674;16.838;2023-07-28T00:06:50;4.53;;;2.70;;
10216;SDS011;5152;59.674;16.838;2023-07-28T00:09:17;5.47;;;3.00;;
10216;SDS011;5152;59.674;16.838;2023-07-28T00:11:44;4.60;;;2.37;;
10216;SDS011;5152;59.674;16.838;2023-07-28T00:14:10;2.50;;;2.30;;
10216;SDS011;5152;59.674;16.838;2023-07-28T00:16:39;3.60;;;2.40;;
10216;SDS011;5152;59.674;16.838;2023-07-28T00:19:05;4.53;;;2.10;;
10216;SDS011;5152;59.674;16.838;2023-07-28T00:21:32;4.20;;;2.20;;
10216;SDS011;5152;59.674;16.838;2023-07-28T00:23:59;2.80;;;2.27;;
10216;SDS011;5152;59.674;16.838;2023-07-28T00:26:26;2.37;;;2.10;;
10216;SDS011;5152;59.674;16.838;2023-07-28T00:28:53;2.57;;;2.37;;
10216;SDS011;5152;59.674;16.838;2023-07-28T00:31:20;6.80;;;1.77;;
10216;SDS011;5152;59.674;16.838;2023-07-28T00:33:48;3.77;;;1.97;;
10216;SDS011;5152;59.674;16.838;2023-07-28T00:36:15;4.77;;;2.63;;
10216;SDS011;5152;59.674;16.838;2023-07-28T00:38:42;3.03;;;2.73;;
10216;SDS011;5152;59.674;16.838;2023-07-28T00:41:08;6.37;;;2.97;;
10216;SDS011;5152;59.674;16.838;2023-07-28T00:43:35;6.40;;;2.70;;
10216;SDS011;5152;59.674;16.838;2023-07-28T00:46:02;7.97;;;2.90;;
10216;SDS011;5152;59.674;16.838;2023-07-28T00:48:29;6.80;;;2.60;;
10216;SDS011;5152;59.674;16.838;2023-07-28T00:50:57;2.87;;;2.47;;
10216;SDS011;5152;59.674;16.838;2023-07-28T00:53:24;6.77;;;2.43;;
10216;SDS011;5152;59.674;16.838;2023-07-28T00:55:51;4.07;;;3.03;;
10216;SDS011;5152;59.674;16.838;2023-07-28T00:58:18;2.47;;;2.27;;
10216;SDS011;5152;59.674;16.838;2023-07-28T01:00:45;3.67;;;2.37;;
10216;SDS011;5152;59.674;16.838;2023-07-28T01:03:12;4.67;;;2.37;;
10216;SDS011;5152;59.674;16.838;2023-07-28T01:05:40;3.93;;;2.03;;
10216;SDS011;5152;59.674;16.838;2023-07-28T01:08:14;5.03;;;1.90;;
10216;SDS011;5152;59.674;16.838;2023-07-28T01:10:44;8.10;;;2.73;;
10216;SDS011;5152;59.674;16.838;2023-07-28T01:13:11;3.63;;;2.60;;
10216;SDS011;5152;59.674;16.838;2023-07-28T01:15:38;5.53;;;2.50;;
10216;SDS011;5152;59.674;16.838;2023-07-28T01:18:05;5.93;;;2.50;;
10216;SDS011;5152;59.674;16.838;2023-07-28T01:20:31;2.83;;;2.10;;
10216;SDS011;5152;59.674;16.838;2023-07-28T01:23:08;7.07;;;2.63;;
10216;SDS011;5152;59.674;16.838;2023-07-28T01:25:39;3.87;;;2.43;;
10216;SDS011;5152;59.674;16.838;2023-07-28T01:28:16;2.87;;;2.17;;
10216;SDS011;5152;59.674;16.838;2023-07-28T01:30:43;4.50;;;2.93;;
10216;SDS011;5152;59.674;16.838;2023-07-28T01:33:10;5.20;;;3.40;;
10216;SDS011;5152;59.674;16.838;2023-07-28T01:35:38;3.20;;;2.63;;
10216;SDS011;5152;59.674;16.838;2023-07-28T01:38:05;6.83;;;2.80;;
10216;SDS011;5152;59.674;16.838;2023-07-28T01:40:32;7.67;;;2.73;;
10216;SDS011;5152;59.674;16.838;2023-07-28T01:42:59;4.97;;;2.77;;
10216;SDS011;5152;59.674;16.838;2023-07-28T01:45:27;2.40;;;2.20;;
10216;SDS011;5152;59.674;16.838;2023-07-28T01:47:54;7.83;;;2.83;;
10216;SDS011;5152;59.674;16.838;2023-07-28T01:50:21;6.67;;;2.40;;
10216;SDS011;5152;59.674;16.838;2023-07-28T01:52:48;5.57;;;2.80;;
10216;SDS011;5152;59.674;16.838;2023-07-28T01:55:14;5.93;;;2.20;;
10216;SDS011;5152;59.674;16.838;2023-07-28T01:57:49;2.53;;;2.10;;
10216;SDS011;5152;59.674;16.838;2023-07-28T02:00:17;3.77;;;2.63;;
10216;SDS011;5152;59.674;16.838;2023-07-28T02:02:46;5.63;;;2.30;;
10216;SDS011;5152;59.674;16.838;2023-07-28T02:05:13;6.57;;;2.80;;
10216;SDS011;5152;59.674;16.838;2023-07-28T02:07:40;7.13;;;2.77;;
10216;SDS011;5152;59.674;16.838;2023-07-28T02:10:07;6.67;;;2.63;;
10216;SDS011;5152;59.674;16.838;2023-07-28T02:12:35;5.50;;;3.00;;
10216;SDS011;5152;59.674;16.838;2023-07-28T02:15:03;6.70;;;2.97;;
10216;SDS011;5152;59.674;16.838;2023-07-28T02:17:31;3.03;;;2.17;;
10216;SDS011;5152;59.674;16.838;2023-07-28T02:19:59;6.07;;;2.93;;
10216;SDS011;5152;59.674;16.838;2023-07-28T02:22:26;4.47;;;2.70;;
10216;SDS011;5152;59.674;16.838;2023-07-28T02:24:53;2.77;;;2.33;;
10216;SDS011;5152;59.674;16.838;2023-07-28T02:27:20;4.77;;;3.13;;
10216;SDS011;5152;59.674;16.838;2023-07-28T02:29:47;5.83;;;2.63;;
10216;SDS011;5152;59.674;16.838;2023-07-28T02:32:14;4.90;;;2.17;;
10216;SDS011;5152;59.674;16.838;2023-07-28T02:34:41;2.80;;;2.10;;
10216;SDS011;5152;59.674;16.838;2023-07-28T02:37:09;7.50;;;2.37;;
10216;SDS011;5152;59.674;16.838;2023-07-28T02:39:36;4.37;;;2.53;;
10216;SDS011;5152;59.674;16.838;2023-07-28T02:42:03;4.60;;;2.73;;
10216;SDS011;5152;59.674;16.838;2023-07-28T02:44:31;5.47;;;3.03;;
10216;SDS011;5152;59.674;16.838;2023-07-28T02:46:58;4.10;;;2.83;;
10216;SDS011;5152;59.674;16.838;2023-07-28T02:49:25;4.90;;;3.07;;
10216;SDS011;5152;59.674;16.838;2023-07-28T02:51:52;8.67;;;3.27;;
10216;SDS011;5152;59.674;16.838;2023-07-28T02:54:20;4.83;;;2.40;;
10216;SDS011;5152;59.674;16.838;2023-07-28T02:56:48;3.23;;;2.20;;
10216;SDS011;5152;59.674;16.838;2023-07-28T02:59:15;5.83;;;2.40;;
10216;SDS011;5152;59.674;16.838;2023-07-28T03:01:42;9.90;;;2.70;;
10216;SDS011;5152;59.674;16.838;2023-07-28T03:04:09;3.83;;;2.50;;
10216;SDS011;5152;59.674;16.838;2023-07-28T03:06:36;8.47;;;2.80;;
10216;SDS011;5152;59.674;16.838;2023-07-28T03:09:03;3.33;;;3.00;;
10216;SDS011;5152;59.674;16.838;2023-07-28T03:11:31;4.27;;;3.17;;
10216;SDS011;5152;59.674;16.838;2023-07-28T03:13:58;4.50;;;2.80;;
10216;SDS011;5152;59.674;16.838;2023-07-28T03:16:25;4.33;;;2.40;;
10216;SDS011;5152;59.674;16.838;2023-07-28T03:18:51;5.17;;;2.47;;
10216;SDS011;5152;59.674;16.838;2023-07-28T03:21:18;6.33;;;2.90;;
10216;SDS011;5152;59.674;16.838;2023-07-28T03:23:45;4.23;;;2.77;;
10216;SDS011;5152;59.674;16.838;2023-07-28T03:26:12;5.73;;;2.60;;
10216;SDS011;5152;59.674;16.838;2023-07-28T03:28:40;7.27;;;2.77;;
10216;SDS011;5152;59.674;16.838;2023-07-28T03:31:07;3.37;;;2.60;;
10216;SDS011;5152;59.674;16.838;2023-07-28T03:33:34;4.77;;;2.73;;
10216;SDS011;5152;59.674;16.838;2023-07-28T03:36:01;5.43;;;2.30;;
10216;SDS011;5152;59.674;16.838;2023-07-28T03:38:27;7.83;;;2.37;;
10216;SDS011;5152;59.674;16.838;2023-07-28T03:40:54;3.30;;;2.73;;
10216;SDS011;5152;59.674;16.838;2023-07-28T03:43:21;6.17;;;3.23;;
10216;SDS011;5152;59.674;16.838;2023-07-28T03:45:49;5.33;;;2.70;;
10216;SDS011;5152;59.674;16.838;2023-07-28T03:48:16;6.30;;;2.30;;
10216;SDS011;5152;59.674;16.838;2023-07-28T03:50:43;4.10;;;2.30;;
10216;SDS011;5152;59.674;16.838;2023-07-28T03:53:10;2.87;;;2.47;;
10216;SDS011;5152;59.674;16.838;2023-07-28T03:55:37;6.40;;;2.40;;
10216;SDS011;5152;59.674;16.838;2023-07-28T03:58:04;4.87;;;2.87;;
10216;SDS011;5152;59.674;16.838;2023-07-28T04:00:30;3.93;;;2.57;;
10216;SDS011;5152;59.674;16.838;2023-07-28T04:02:59;5.80;;;2.77;;
10216;SDS011;5152;59.674;16.838;2023-07-28T04:05:26;9.23;;;3.17;;
10216;SDS011;5152;59.674;16.838;2023-07-28T04:07:52;5.37;;;3.03;;
10216;SDS011;5152;59.674;16.838;2023-07-28T04:10:19;4.53;;;2.27;;
10216;SDS011;5152;59.674;16.838;2023-07-28T04:12:47;3.73;;;2.87;;
10216;SDS011;5152;59.674;16.838;2023-07-28T04:15:13;3.43;;;2.67;;
10216;SDS011;5152;59.674;16.838;2023-07-28T04:17:41;8.73;;;3.57;;
10216;SDS011;5152;59.674;16.838;2023-07-28T04:20:09;7.00;;;2.53;;
10216;SDS011;5152;59.674;16.838;2023-07-28T04:22:37;2.93;;;2.40;;
10216;SDS011;5152;59.674;16.838;2023-07-28T04:25:04;4.37;;;2.60;;
10216;SDS011;5152;59.674;16.838;2023-07-28T04:27:31;4.20;;;2.63;;
10216;SDS011;5152;59.674;16.838;2023-07-28T04:29:58;4.33;;;2.87;;
10216;SDS011;5152;59.674;16.838;2023-07-28T04:32:25;7.23;;;3.20;;
10216;SDS011;5152;59.674;16.838;2023-07-28T04:34:52;3.33;;;2.83;;
10216;SDS011;5152;59.674;16.838;2023-07-28T04:37:21;4.20;;;2.90;;
10216;SDS011;5152;59.674;16.838;2023-07-28T04:39:47;3.97;;;2.03;;
10216;SDS011;5152;59.674;16.838;2023-07-28T04:42:15;2.73;;;2.20;;
10216;SDS011;5152;59.674;16.838;2023-07-28T04:44:42;5.43;;;3.00;;
10216;SDS011;5152;59.674;16.838;2023-07-28T04:47:10;6.87;;;3.03;;
10216;SDS011;5152;59.674;16.838;2023-07-28T04:49:37;5.83;;;3.00;;
10216;SDS011;5152;59.674;16.838;2023-07-28T04:52:05;3.10;;;2.53;;
10216;SDS011;5152;59.674;16.838;2023-07-28T04:54:34;5.10;;;2.83;;
10216;SDS011;5152;59.674;16.838;2023-07-28T04:57:01;7.93;;;2.97;;
10216;SDS011;5152;59.674;16.838;2023-07-28T04:59:28;8.97;;;3.30;;
10216;SDS011;5152;59.674;16.838;2023-07-28T05:01:55;11.80;;;3.23;;
10216;SDS011;5152;59.674;16.838;2023-07-28T05:04:22;5.83;;;3.70;;
10216;SDS011;5152;59.674;16.838;2023-07-28T05:06:49;2.33;;;2.10;;
10216;SDS011;5152;59.674;16.838;2023-07-28T05:09:16;4.33;;;2.73;;
10216;SDS011;5152;59.674;16.838;2023-07-28T05:11:44;6.97;;;3.70;;
10216;SDS011;5152;59.674;16.838;2023-07-28T05:14:11;6.43;;;3.47;;
10216;SDS011;5152;59.674;16.838;2023-07-28T05:16:38;5.00;;;2.77;;
10216;SDS011;5152;59.674;16.838;2023-07-28T05:19:05;3.47;;;3.17;;
10216;SDS011;5152;59.674;16.838;2023-07-28T05:21:32;6.90;;;2.90;;
10216;SDS011;5152;59.674;16.838;2023-07-28T05:24:00;7.50;;;3.40;;
10216;SDS011;5152;59.674;16.838;2023-07-28T05:26:27;2.03;;;1.47;;
10216;SDS011;5152;59.674;16.838;2023-07-28T05:28:55;5.10;;;3.00;;
10216;SDS011;5152;59.674;16.838;2023-07-28T05:31:22;4.30;;;2.80;;
10216;SDS011;5152;59.674;16.838;2023-07-28T05:33:48;3.43;;;2.50;;
10216;SDS011;5152;59.674;16.838;2023-07-28T05:36:15;5.57;;;2.73;;
10216;SDS011;5152;59.674;16.838;2023-07-28T05:38:42;6.37;;;3.30;;
10216;SDS011;5152;59.674;16.838;2023-07-28T05:41:09;6.67;;;2.73;;
10216;SDS011;5152;59.674;16.838;2023-07-28T05:43:36;3.90;;;2.97;;
10216;SDS011;5152;59.674;16.838;2023-07-28T05:46:04;5.47;;;2.60;;
10216;SDS011;5152;59.674;16.838;2023-07-28T05:48:31;2.67;;;2.43;;
10216;SDS011;5152;59.674;16.838;2023-07-28T05:50:58;4.00;;;3.07;;
10216;SDS011;5152;59.674;16.838;2023-07-28T05:53:25;7.30;;;3.73;;
10216;SDS011;5152;59.674;16.838;2023-07-28T05:55:52;4.23;;;2.20;;
10216;SDS011;5152;59.674;16.838;2023-07-28T05:58:18;5.50;;;2.37;;
10216;SDS011;5152;59.674;16.838;2023-07-28T06:00:45;3.07;;;2.67;;
10216;SDS011;5152;59.674;16.838;2023-07-28T06:03:16;5.83;;;2.70;;
10216;SDS011;5152;59.674;16.838;2023-07-28T06:05:42;4.63;;;2.77;;
10216;SDS011;5152;59.674;16.838;2023-07-28T06:08:09;5.13;;;3.00;;
10216;SDS011;5152;59.674;16.838;2023-07-28T06:10:36;4.37;;;2.60;;
10216;SDS011;5152;59.674;16.838;2023-07-28T06:13:03;3.90;;;2.50;;
10216;SDS011;5152;59.674;16.838;2023-07-28T06:15:30;4.33;;;2.40;;
10216;SDS011;5152;59.674;16.838;2023-07-28T06:18:00;3.70;;;2.53;;
10216;SDS011;5152;59.674;16.838;2023-07-28T06:20:28;5.23;;;2.80;;
10216;SDS011;5152;59.674;16.838;2023-07-28T06:22:56;4.80;;;2.87;;
10216;SDS011;5152;59.674;16.838;2023-07-28T06:25:23;2.70;;;1.90;;
10216;SDS011;5152;59.674;16.838;2023-07-28T06:27:49;3.27;;;2.20;;
10216;SDS011;5152;59.674;16.838;2023-07-28T06:30:16;4.73;;;2.43;;
10216;SDS011;5152;59.674;16.838;2023-07-28T06:32:43;2.43;;;1.90;;
10216;SDS011;5152;59.674;16.838;2023-07-28T06:35:11;2.63;;;2.00;;
10216;SDS011;5152;59.674;16.838;2023-07-28T06:37:39;3.00;;;2.00;;
10216;SDS011;5152;59.674;16.838;2023-07-28T06:40:06;3.33;;;2.23;;
10216;SDS011;5152;59.674;16.838;2023-07-28T06:42:34;3.00;;;2.23;;
10216;SDS011;5152;59.674;16.838;2023-07-28T06:45:02;1.70;;;1.60;;
10216;SDS011;5152;59.674;16.838;2023-07-28T06:47:30;2.67;;;1.93;;
10216;SDS011;5152;59.674;16.838;2023-07-28T06:49:58;3.60;;;1.73;;
10216;SDS011;5152;59.674;16.838;2023-07-28T06:52:25;3.07;;;1.93;;
10216;SDS011;5152;59.674;16.838;2023-07-28T06:54:53;1.93;;;1.50;;
10216;SDS011;5152;59.674;16.838;2023-07-28T06:57:20;2.97;;;1.70;;
10216;SDS011;5152;59.674;16.838;2023-07-28T06:59:47;3.43;;;1.40;;
10216;SDS011;5152;59.674;16.838;2023-07-28T07:02:14;6.03;;;2.00;;
10216;SDS011;5152;59.674;16.838;2023-07-28T07:04:41;1.90;;;1.70;;
10216;SDS011;5152;59.674;16.838;2023-07-28T07:07:08;2.50;;;1.33;;
10216;SDS011;5152;59.674;16.838;2023-07-28T07:09:35;13.63;;;3.90;;
10216;SDS011;5152;59.674;16.838;2023-07-28T07:12:04;5.97;;;2.13;;
10216;SDS011;5152;59.674;16.838;2023-07-28T07:14:31;17.87;;;6.33;;
10216;SDS011;5152;59.674;16.838;2023-07-28T07:16:58;2.90;;;2.30;;
10216;SDS011;5152;59.674;16.838;2023-07-28T07:19:27;14.13;;;3.73;;
10216;SDS011;5152;59.674;16.838;2023-07-28T07:21:54;4.33;;;1.80;;
10216;SDS011;5152;59.674;16.838;2023-07-28T07:24:21;6.03;;;2.30;;
10216;SDS011;5152;59.674;16.838;2023-07-28T07:26:48;3.03;;;1.70;;
10216;SDS011;5152;59.674;16.838;2023-07-28T07:29:17;4.27;;;1.93;;
10216;SDS011;5152;59.674;16.838;2023-07-28T07:31:44;3.33;;;1.97;;
10216;SDS011;5152;59.674;16.838;2023-07-28T07:34:11;2.47;;;1.60;;
10216;SDS011;5152;59.674;16.838;2023-07-28T07:36:38;3.87;;;1.83;;
10216;SDS011;5152;59.674;16.838;2023-07-28T07:39:05;2.53;;;1.50;;
10216;SDS011;5152;59.674;16.838;2023-07-28T07:41:32;3.47;;;2.00;;
10216;SDS011;5152;59.674;16.838;2023-07-28T07:43:59;5.77;;;1.50;;
10216;SDS011;5152;59.674;16.838;2023-07-28T07:46:29;3.53;;;1.80;;
10216;SDS011;5152;59.674;16.838;2023-07-28T07:48:56;1.70;;;1.60;;
10216;SDS011;5152;59.674;16.838;2023-07-28T07:51:23;4.10;;;1.77;;
10216;SDS011;5152;59.674;16.838;2023-07-28T07:53:50;4.43;;;1.83;;
10216;SDS011;5152;59.674;16.838;2023-07-28T07:56:17;3.33;;;1.60;;
10216;SDS011;5152;59.674;16.838;2023-07-28T07:58:44;2.67;;;1.60;;
10216;SDS011;5152;59.674;16.838;2023-07-28T08:01:11;2.93;;;2.00;;
10216;SDS011;5152;59.674;16.838;2023-07-28T08:03:40;2.60;;;2.00;;
10216;SDS011;5152;59.674;16.838;2023-07-28T08:06:06;4.07;;;1.97;;
10216;SDS011;5152;59.674;16.838;2023-07-28T08:08:36;4.90;;;2.10;;
10216;SDS011;5152;59.674;16.838;2023-07-28T08:11:03;2.50;;;1.60;;
10216;SDS011;5152;59.674;16.838;2023-07-28T08:13:30;4.93;;;1.93;;
10216;SDS011;5152;59.674;16.838;2023-07-28T08:15:57;7.50;;;2.30;;
10216;SDS011;5152;59.674;16.838;2023-07-28T08:18:24;2.50;;;1.50;;
10216;SDS011;5152;59.674;16.838;2023-07-28T08:20:52;1.90;;;1.33;;
10216;SDS011;5152;59.674;16.838;2023-07-28T08:23:19;2.60;;;1.70;;
10216;SDS011;5152;59.674;16.838;2023-07-28T08:25:46;2.87;;;1.77;;
10216;SDS011;5152;59.674;16.838;2023-07-28T08:28:13;1.70;;;1.60;;
10216;SDS011;5152;59.674;16.838;2023-07-28T08:30:40;5.83;;;1.90;;
10216;SDS011;5152;59.674;16.838;2023-07-28T08:33:07;2.83;;;1.80;;
10216;SDS011;5152;59.674;16.838;2023-07-28T08:35:33;4.67;;;3.10;;
10216;SDS011;5152;59.674;16.838;2023-07-28T08:38:02;3.87;;;1.93;;
10216;SDS011;5152;59.674;16.838;2023-07-28T08:40:29;3.20;;;2.00;;
10216;SDS011;5152;59.674;16.838;2023-07-28T08:42:56;1.97;;;1.40;;
10216;SDS011;5152;59.674;16.838;2023-07-28T08:45:23;4.83;;;1.93;;
10216;SDS011;5152;59.674;16.838;2023-07-28T08:47:50;1.90;;;1.50;;
10216;SDS011;5152;59.674;16.838;2023-07-28T08:50:18;5.90;;;2.17;;
10216;SDS011;5152;59.674;16.838;2023-07-28T08:52:45;4.93;;;1.80;;
10216;SDS011;5152;59.674;16.838;2023-07-28T08:55:13;5.77;;;2.20;;
10216;SDS011;5152;59.674;16.838;2023-07-28T08:57:40;2.13;;;1.93;;
10216;SDS011;5152;59.674;16.838;2023-07-28T09:00:08;4.97;;;1.47;;
10216;SDS011;5152;59.674;16.838;2023-07-28T09:02:38;2.27;;;1.30;;
10216;SDS011;5152;59.674;16.838;2023-07-28T09:05:05;2.97;;;1.90;;
10216;SDS011;5152;59.674;16.838;2023-07-28T09:07:35;5.00;;;2.10;;
10216;SDS011;5152;59.674;16.838;2023-07-28T09:10:02;3.30;;;1.60;;
10216;SDS011;5152;59.674;16.838;2023-07-28T09:12:32;3.30;;;2.10;;
10216;SDS011;5152;59.674;16.838;2023-07-28T09:14:59;1.97;;;1.77;;
10216;SDS011;5152;59.674;16.838;2023-07-28T09:17:26;2.10;;;1.27;;
10216;SDS011;5152;59.674;16.838;2023-07-28T09:19:54;4.53;;;1.77;;
10216;SDS011;5152;59.674;16.838;2023-07-28T09:22:22;2.50;;;1.30;;
10216;SDS011;5152;59.674;16.838;2023-07-28T09:24:49;3.17;;;1.70;;
10216;SDS011;5152;59.674;16.838;2023-07-28T09:27:20;4.33;;;1.63;;
10216;SDS011;5152;59.674;16.838;2023-07-28T09:29:49;2.10;;;1.73;;
10216;SDS011;5152;59.674;16.838;2023-07-28T09:32:18;2.57;;;1.40;;
10216;SDS011;5152;59.674;16.838;2023-07-28T09:35:04;3.33;;;1.80;;
10216;SDS011;5152;59.674;16.838;2023-07-28T09:37:34;3.77;;;1.30;;
10216;SDS011;5152;59.674;16.838;2023-07-28T09:40:04;1.90;;;1.50;;
10216;SDS011;5152;59.674;16.838;2023-07-28T09:42:35;1.60;;;1.50;;
10216;SDS011;5152;59.674;16.838;2023-07-28T09:45:04;5.23;;;1.70;;
10216;SDS011;5152;59.674;16.838;2023-07-28T09:47:32;2.03;;;1.70;;
10216;SDS011;5152;59.674;16.838;2023-07-28T09:50:01;2.60;;;1.60;;
10216;SDS011;5152;59.674;16.838;2023-07-28T09:52:31;3.50;;;1.40;;
10216;SDS011;5152;59.674;16.838;2023-07-28T09:55:01;3.23;;;1.77;;
10216;SDS011;5152;59.674;16.838;2023-07-28T09:57:33;5.30;;;1.80;;
10216;SDS011;5152;59.674;16.838;2023-07-28T10:00:05;1.90;;;1.70;;
10216;SDS011;5152;59.674;16.838;2023-07-28T10:02:33;1.93;;;1.47;;
10216;SDS011;5152;59.674;16.838;2023-07-28T10:05:01;3.30;;;1.50;;
10216;SDS011;5152;59.674;16.838;2023-07-28T10:07:29;3.00;;;1.70;;
10216;SDS011;5152;59.674;16.838;2023-07-28T10:09:56;4.33;;;1.80;;
10216;SDS011;5152;59.674;16.838;2023-07-28T10:12:24;3.73;;;1.60;;
10216;SDS011;5152;59.674;16.838;2023-07-28T10:14:59;3.53;;;1.70;;
10216;SDS011;5152;59.674;16.838;2023-07-28T10:17:32;2.33;;;1.53;;
10216;SDS011;5152;59.674;16.838;2023-07-28T10:20:00;3.40;;;1.77;;
10216;SDS011;5152;59.674;16.838;2023-07-28T10:22:27;1.70;;;1.60;;
10216;SDS011;5152;59.674;16.838;2023-07-28T10:24:55;3.07;;;1.20;;
10216;SDS011;5152;59.674;16.838;2023-07-28T10:27:29;6.73;;;2.10;;
10216;SDS011;5152;59.674;16.838;2023-07-28T10:29:56;3.27;;;1.10;;
10216;SDS011;5152;59.674;16.838;2023-07-28T10:32:28;5.13;;;1.40;;
10216;SDS011;5152;59.674;16.838;2023-07-28T10:35:03;3.17;;;1.60;;
10216;SDS011;5152;59.674;16.838;2023-07-28T10:37:33;4.47;;;1.80;;
10216;SDS011;5152;59.674;16.838;2023-07-28T10:42:51;2.40;;;1.50;;
10216;SDS011;5152;59.674;16.838;2023-07-28T10:45:18;4.30;;;1.97;;
10216;SDS011;5152;59.674;16.838;2023-07-28T10:47:45;2.20;;;1.43;;
10216;SDS011;5152;59.674;16.838;2023-07-28T10:50:14;1.40;;;1.20;;
10216;SDS011;5152;59.674;16.838;2023-07-28T10:52:41;1.97;;;1.27;;
10216;SDS011;5152;59.674;16.838;2023-07-28T10:55:12;6.90;;;1.40;;
10216;SDS011;5152;59.674;16.838;2023-07-28T10:57:41;1.63;;;1.17;;
10216;SDS011;5152;59.674;16.838;2023-07-28T11:00:09;1.50;;;1.40;;
10216;SDS011;5152;59.674;16.838;2023-07-28T11:02:38;2.80;;;1.60;;
10216;SDS011;5152;59.674;16.838;2023-07-28T11:05:09;4.38;;;1.67;;
10216;SDS011;5152;59.674;16.838;2023-07-28T11:07:38;2.95;;;1.60;;
10216;SDS011;5152;59.674;16.838;2023-07-28T11:10:08;1.77;;;1.40;;
10216;SDS011;5152;59.674;16.838;2023-07-28T11:12:38;1.92;;;1.52;;
10216;SDS011;5152;59.674;16.838;2023-07-28T11:15:07;3.60;;;1.58;;
10216;SDS011;5152;59.674;16.838;2023-07-28T11:17:36;4.43;;;1.70;;
10216;SDS011;5152;59.674;16.838;2023-07-28T11:20:04;0.90;;;0.90;;
10216;SDS011;5152;59.674;16.838;2023-07-28T11:22:36;2.80;;;1.43;;
10216;SDS011;5152;59.674;16.838;2023-07-28T11:25:07;2.43;;;1.57;;
10216;SDS011;5152;59.674;16.838;2023-07-28T11:27:35;2.63;;;1.47;;
10216;SDS011;5152;59.674;16.838;2023-07-28T11:30:03;5.40;;;1.60;;
10216;SDS011;5152;59.674;16.838;2023-07-28T11:32:33;1.57;;;1.40;;
10216;SDS011;5152;59.674;16.838;2023-07-28T11:35:03;1.40;;;1.30;;
10216;SDS011;5152;59.674;16.838;2023-07-28T11:37:32;2.77;;;1.60;;
10216;SDS011;5152;59.674;16.838;2023-07-28T11:39:59;2.53;;;1.70;;
10216;SDS011;5152;59.674;16.838;2023-07-28T11:42:28;2.67;;;1.00;;
10216;SDS011;5152;59.674;16.838;2023-07-28T11:44:55;2.92;;;1.60;;
10216;SDS011;5152;59.674;16.838;2023-07-28T11:47:22;2.57;;;1.37;;
10216;SDS011;5152;59.674;16.838;2023-07-28T11:49:49;2.53;;;1.30;;
10216;SDS011;5152;59.674;16.838;2023-07-28T11:52:17;1.93;;;1.50;;
10216;SDS011;5152;59.674;16.838;2023-07-28T11:54:43;4.43;;;1.20;;
10216;SDS011;5152;59.674;16.838;2023-07-28T11:57:10;3.90;;;1.63;;
10216;SDS011;5152;59.674;16.838;2023-07-28T11:59:40;1.90;;;1.63;;
10216;SDS011;5152;59.674;16.838;2023-07-28T12:02:07;1.93;;;1.47;;
10216;SDS011;5152;59.674;16.838;2023-07-28T12:04:35;7.10;;;1.70;;
10216;SDS011;5152;59.674;16.838;2023-07-28T12:07:06;3.20;;;1.60;;
10216;SDS011;5152;59.674;16.838;2023-07-28T12:09:49;1.57;;;1.30;;
10216;SDS011;5152;59.674;16.838;2023-07-28T12:12:17;3.13;;;1.50;;
10216;SDS011;5152;59.674;16.838;2023-07-28T12:14:47;3.17;;;1.43;;
10216;SDS011;5152;59.674;16.838;2023-07-28T12:17:14;4.07;;;1.30;;
10216;SDS011;5152;59.674;16.838;2023-07-28T12:19:41;2.10;;;1.10;;
10216;SDS011;5152;59.674;16.838;2023-07-28T12:22:08;0.73;;;0.73;;
10216;SDS011;5152;59.674;16.838;2023-07-28T12:24:36;1.30;;;0.80;;
10216;SDS011;5152;59.674;16.838;2023-07-28T12:27:04;0.70;;;0.70;;
10216;SDS011;5152;59.674;16.838;2023-07-28T12:29:31;3.33;;;0.80;;
10216;SDS011;5152;59.674;16.838;2023-07-28T12:31:59;2.87;;;0.93;;
10216;SDS011;5152;59.674;16.838;2023-07-28T12:34:26;3.17;;;0.93;;
10216;SDS011;5152;59.674;16.838;2023-07-28T12:36:53;2.77;;;0.83;;
10216;SDS011;5152;59.674;16.838;2023-07-28T12:39:20;1.33;;;1.00;;
10216;SDS011;5152;59.674;16.838;2023-07-28T12:41:47;2.33;;;1.07;;
10216;SDS011;5152;59.674;16.838;2023-07-28T12:44:14;3.63;;;0.87;;
10216;SDS011;5152;59.674;16.838;2023-07-28T12:46:41;6.03;;;0.87;;
10216;SDS011;5152;59.674;16.838;2023-07-28T12:49:09;0.90;;;0.80;;
10216;SDS011;5152;59.674;16.838;2023-07-28T12:51:36;3.90;;;1.17;;
10216;SDS011;5152;59.674;16.838;2023-07-28T12:54:03;0.90;;;0.70;;
10216;SDS011;5152;59.674;16.838;2023-07-28T12:56:30;1.33;;;0.83;;
10216;SDS011;5152;59.674;16.838;2023-07-28T12:58:57;2.63;;;0.87;;
10216;SDS011;5152;59.674;16.838;2023-07-28T13:01:24;1.03;;;0.93;;
10216;SDS011;5152;59.674;16.838;2023-07-28T13:03:51;0.93;;;0.83;;
10216;SDS011;5152;59.674;16.838;2023-07-28T13:06:20;1.00;;;1.00;;
10216;SDS011;5152;59.674;16.838;2023-07-28T13:08:47;1.53;;;0.90;;
10216;SDS011;5152;59.674;16.838;2023-07-28T13:11:14;0.90;;;0.90;;
10216;SDS011;5152;59.674;16.838;2023-07-28T13:13:41;3.47;;;1.43;;
10216;SDS011;5152;59.674;16.838;2023-07-28T13:16:08;0.77;;;0.70;;
10216;SDS011;5152;59.674;16.838;2023-07-28T13:18:35;2.93;;;1.13;;
10216;SDS011;5152;59.674;16.838;2023-07-28T13:21:02;4.93;;;0.80;;
10216;SDS011;5152;59.674;16.838;2023-07-28T13:23:30;2.80;;;0.97;;
10216;SDS011;5152;59.674;16.838;2023-07-28T13:25:57;3.60;;;1.17;;
10216;SDS011;5152;59.674;16.838;2023-07-28T13:28:24;7.67;;;1.17;;
10216;SDS011;5152;59.674;16.838;2023-07-28T13:30:51;2.73;;;0.90;;
10216;SDS011;5152;59.674;16.838;2023-07-28T13:33:18;6.83;;;0.93;;
10216;SDS011;5152;59.674;16.838;2023-07-28T13:35:45;3.10;;;0.93;;
10216;SDS011;5152;59.674;16.838;2023-07-28T13:38:12;1.73;;;0.90;;
10216;SDS011;5152;59.674;16.838;2023-07-28T13:40:40;2.17;;;1.07;;
10216;SDS011;5152;59.674;16.838;2023-07-28T13:43:07;1.60;;;0.83;;
10216;SDS011;5152;59.674;16.838;2023-07-28T13:45:34;3.67;;;1.10;;
10216;SDS011;5152;59.674;16.838;2023-07-28T13:48:00;3.27;;;1.10;;
10216;SDS011;5152;59.674;16.838;2023-07-28T13:50:27;5.03;;;1.27;;
10216;SDS011;5152;59.674;16.838;2023-07-28T13:52:54;3.40;;;1.20;;
10216;SDS011;5152;59.674;16.838;2023-07-28T13:55:21;1.17;;;1.00;;
10216;SDS011;5152;59.674;16.838;2023-07-28T13:57:50;1.17;;;0.90;;
10216;SDS011;5152;59.674;16.838;2023-07-28T14:00:17;1.47;;;0.80;;
10216;SDS011;5152;59.674;16.838;2023-07-28T14:02:44;2.43;;;0.80;;
10216;SDS011;5152;59.674;16.838;2023-07-28T14:05:10;1.37;;;1.00;;
10216;SDS011;5152;59.674;16.838;2023-07-28T14:07:37;3.03;;;0.80;;
10216;SDS011;5152;59.674;16.838;2023-07-28T14:10:04;1.23;;;0.90;;
10216;SDS011;5152;59.674;16.838;2023-07-28T14:12:32;4.00;;;1.00;;
10216;SDS011;5152;59.674;16.838;2023-07-28T14:15:00;2.53;;;0.90;;
10216;SDS011;5152;59.674;16.838;2023-07-28T14:17:27;1.73;;;1.10;;
10216;SDS011;5152;59.674;16.838;2023-07-28T14:19:54;1.73;;;0.93;;
10216;SDS011;5152;59.674;16.838;2023-07-28T14:22:21;3.53;;;1.20;;
10216;SDS011;5152;59.674;16.838;2023-07-28T14:24:47;1.87;;;1.13;;
10216;SDS011;5152;59.674;16.838;2023-07-28T14:27:14;1.20;;;1.00;;
10216;SDS011;5152;59.674;16.838;2023-07-28T14:29:41;1.53;;;1.00;;
10216;SDS011;5152;59.674;16.838;2023-07-28T14:32:09;6.37;;;0.80;;
10216;SDS011;5152;59.674;16.838;2023-07-28T14:34:36;1.20;;;0.93;;
10216;SDS011;5152;59.674;16.838;2023-07-28T14:37:04;2.93;;;1.00;;
10216;SDS011;5152;59.674;16.838;2023-07-28T14:39:31;2.73;;;1.10;;
10216;SDS011;5152;59.674;16.838;2023-07-28T14:41:58;3.07;;;0.87;;
10216;SDS011;5152;59.674;16.838;2023-07-28T14:44:25;3.27;;;1.13;;
10216;SDS011;5152;59.674;16.838;2023-07-28T14:46:52;4.00;;;1.00;;
10216;SDS011;5152;59.674;16.838;2023-07-28T14:49:20;4.17;;;1.17;;
10216;SDS011;5152;59.674;16.838;2023-07-28T14:51:47;1.17;;;0.90;;
10216;SDS011;5152;59.674;16.838;2023-07-28T14:54:14;0.83;;;0.83;;